sensor_id;sensor_type;location;lat;lon;timestamp;temperature;humidity
52203;DHT22;38173;52.850;6.970;2023-05-02T00:01:06;11.00;99.90
52203;DHT22;38173;52.850;6.970;2023-05-02T00:03:31;11.00;99.90
52203;DHT22;38173;52.850;6.970;2023-05-02T00:05:58;11.00;99.90
52203;DHT22;38173;52.850;6.970;2023-05-02T00:08:24;11.10;99.90
52203;DHT22;38173;52.850;6.970;2023-05-02T00:10:50;11.10;99.90
52203;DHT22;38173;52.850;6.970;2023-05-02T00:13:15;11.10;99.90
52203;DHT22;38173;52.850;6.970;2023-05-02T00:15:41;11.10;99.90
52203;DHT22;38173;52.850;6.970;2023-05-02T00:18:07;11.10;99.90
52203;DHT22;38173;52.850;6.970;2023-05-02T00:20:32;11.10;99.90
52203;DHT22;38173;52.850;6.970;2023-05-02T00:22:58;11.10;99.90
52203;DHT22;38173;52.850;6.970;2023-05-02T00:25:24;11.10;99.90
52203;DHT22;38173;52.850;6.970;2023-05-02T00:27:49;11.10;99.90
52203;DHT22;38173;52.850;6.970;2023-05-02T00:30:16;11.00;99.90
52203;DHT22;38173;52.850;6.970;2023-05-02T00:32:42;11.00;99.90
52203;DHT22;38173;52.850;6.970;2023-05-02T00:35:08;11.00;99.90
52203;DHT22;38173;52.850;6.970;2023-05-02T00:37:34;11.00;99.90
52203;DHT22;38173;52.850;6.970;2023-05-02T00:40:00;11.00;99.90
52203;DHT22;38173;52.850;6.970;2023-05-02T00:42:26;10.90;99.90
52203;DHT22;38173;52.850;6.970;2023-05-02T00:44:55;10.90;99.90
52203;DHT22;38173;52.850;6.970;2023-05-02T00:47:21;10.90;99.90
52203;DHT22;38173;52.850;6.970;2023-05-02T00:49:48;10.80;99.90
52203;DHT22;38173;52.850;6.970;2023-05-02T00:52:14;10.80;99.90
52203;DHT22;38173;52.850;6.970;2023-05-02T00:54:40;10.70;99.90
52203;DHT22;38173;52.850;6.970;2023-05-02T00:57:06;10.70;99.90
52203;DHT22;38173;52.850;6.970;2023-05-02T00:59:35;10.60;99.90
52203;DHT22;38173;52.850;6.970;2023-05-02T01:14:54;10.20;99.90
52203;DHT22;38173;52.850;6.970;2023-05-02T01:17:21;10.20;99.90
52203;DHT22;38173;52.850;6.970;2023-05-02T01:19:50;10.10;99.90
52203;DHT22;38173;52.850;6.970;2023-05-02T01:22:19;10.10;99.90
52203;DHT22;38173;52.850;6.970;2023-05-02T01:27:23;10.00;99.90
52203;DHT22;38173;52.850;6.970;2023-05-02T01:29:49;10.00;99.90
52203;DHT22;38173;52.850;6.970;2023-05-02T01:32:16;10.00;99.90
52203;DHT22;38173;52.850;6.970;2023-05-02T01:34:42;10.00;99.90
52203;DHT22;38173;52.850;6.970;2023-05-02T01:37:10;9.90;99.90
52203;DHT22;38173;52.850;6.970;2023-05-02T01:39:37;9.90;99.90
52203;DHT22;38173;52.850;6.970;2023-05-02T01:42:04;9.80;99.90
52203;DHT22;38173;52.850;6.970;2023-05-02T01:44:30;9.80;99.90
52203;DHT22;38173;52.850;6.970;2023-05-02T01:46:57;9.80;99.90
52203;DHT22;38173;52.850;6.970;2023-05-02T01:49:24;9.70;99.90
52203;DHT22;38173;52.850;6.970;2023-05-02T01:51:51;9.80;99.90
52203;DHT22;38173;52.850;6.970;2023-05-02T01:54:18;9.70;99.90
52203;DHT22;38173;52.850;6.970;2023-05-02T01:56:44;9.60;99.90
52203;DHT22;38173;52.850;6.970;2023-05-02T01:59:11;9.70;99.90
52203;DHT22;38173;52.850;6.970;2023-05-02T02:01:39;9.70;99.90
52203;DHT22;38173;52.850;6.970;2023-05-02T02:04:05;9.60;99.90
52203;DHT22;38173;52.850;6.970;2023-05-02T02:06:31;9.70;99.90
52203;DHT22;38173;52.850;6.970;2023-05-02T02:08:57;9.70;99.90
52203;DHT22;38173;52.850;6.970;2023-05-02T02:11:28;9.60;99.90
52203;DHT22;38173;52.850;6.970;2023-05-02T02:14:04;9.60;99.90
52203;DHT22;38173;52.850;6.970;2023-05-02T02:16:31;9.60;99.90
52203;DHT22;38173;52.850;6.970;2023-05-02T02:18:58;9.60;99.90
52203;DHT22;38173;52.850;6.970;2023-05-02T02:21:26;9.60;99.90
52203;DHT22;38173;52.850;6.970;2023-05-02T02:23:53;9.60;99.90
52203;DHT22;38173;52.850;6.970;2023-05-02T02:26:20;9.60;99.90
52203;DHT22;38173;52.850;6.970;2023-05-02T02:28:46;9.60;99.90
52203;DHT22;38173;52.850;6.970;2023-05-02T02:31:12;9.60;99.90
52203;DHT22;38173;52.850;6.970;2023-05-02T02:33:38;9.60;99.90
52203;DHT22;38173;52.850;6.970;2023-05-02T02:36:11;9.60;99.90
52203;DHT22;38173;52.850;6.970;2023-05-02T02:43:43;9.50;99.90
52203;DHT22;38173;52.850;6.970;2023-05-02T02:46:24;9.50;99.90
52203;DHT22;38173;52.850;6.970;2023-05-02T02:48:55;9.50;99.90
52203;DHT22;38173;52.850;6.970;2023-05-02T02:51:30;9.40;99.90
52203;DHT22;38173;52.850;6.970;2023-05-02T02:53:59;9.40;99.90
52203;DHT22;38173;52.850;6.970;2023-05-02T02:56:44;9.30;99.90
52203;DHT22;38173;52.850;6.970;2023-05-02T02:59:25;9.20;99.90
52203;DHT22;38173;52.850;6.970;2023-05-02T03:02:04;9.10;99.90
52203;DHT22;38173;52.850;6.970;2023-05-02T03:04:30;8.90;99.90
52203;DHT22;38173;52.850;6.970;2023-05-02T03:06:57;8.70;99.90
52203;DHT22;38173;52.850;6.970;2023-05-02T03:09:22;8.60;99.90
52203;DHT22;38173;52.850;6.970;2023-05-02T03:11:48;8.50;99.90
52203;DHT22;38173;52.850;6.970;2023-05-02T03:14:14;8.40;99.90
52203;DHT22;38173;52.850;6.970;2023-05-02T03:16:40;8.30;99.90
52203;DHT22;38173;52.850;6.970;2023-05-02T03:19:06;8.20;99.90
52203;DHT22;38173;52.850;6.970;2023-05-02T03:21:32;8.20;99.90
52203;DHT22;38173;52.850;6.970;2023-05-02T03:23:58;8.10;99.90
52203;DHT22;38173;52.850;6.970;2023-05-02T03:26:24;8.10;99.90
52203;DHT22;38173;52.850;6.970;2023-05-02T03:28:50;8.10;99.90
52203;DHT22;38173;52.850;6.970;2023-05-02T03:31:15;8.00;99.90
52203;DHT22;38173;52.850;6.970;2023-05-02T03:33:41;8.10;99.90
52203;DHT22;38173;52.850;6.970;2023-05-02T03:36:07;8.00;99.90
52203;DHT22;38173;52.850;6.970;2023-05-02T03:38:33;8.00;99.90
52203;DHT22;38173;52.850;6.970;2023-05-02T03:40:58;7.90;99.90
52203;DHT22;38173;52.850;6.970;2023-05-02T03:43:24;7.90;99.90
52203;DHT22;38173;52.850;6.970;2023-05-02T03:45:49;7.80;99.90
52203;DHT22;38173;52.850;6.970;2023-05-02T03:48:15;7.80;99.90
52203;DHT22;38173;52.850;6.970;2023-05-02T03:50:41;7.80;99.90
52203;DHT22;38173;52.850;6.970;2023-05-02T03:53:08;7.80;99.90
52203;DHT22;38173;52.850;6.970;2023-05-02T03:55:41;7.80;99.90
52203;DHT22;38173;52.850;6.970;2023-05-02T03:58:06;7.80;99.90
52203;DHT22;38173;52.850;6.970;2023-05-02T04:00:32;7.70;99.90
52203;DHT22;38173;52.850;6.970;2023-05-02T04:03:01;7.70;99.90
52203;DHT22;38173;52.850;6.970;2023-05-02T04:05:27;7.70;99.90
52203;DHT22;38173;52.850;6.970;2023-05-02T04:07:56;7.70;99.90
52203;DHT22;38173;52.850;6.970;2023-05-02T04:10:22;7.70;99.90
52203;DHT22;38173;52.850;6.970;2023-05-02T04:12:48;7.60;99.90
52203;DHT22;38173;52.850;6.970;2023-05-02T04:15:14;7.70;99.90
52203;DHT22;38173;52.850;6.970;2023-05-02T04:17:39;7.60;99.90
52203;DHT22;38173;52.850;6.970;2023-05-02T04:20:05;7.60;99.90
52203;DHT22;38173;52.850;6.970;2023-05-02T04:22:31;7.60;99.90
52203;DHT22;38173;52.850;6.970;2023-05-02T04:24:58;7.60;99.90
52203;DHT22;38173;52.850;6.970;2023-05-02T04:27:23;7.60;99.90
52203;DHT22;38173;52.850;6.970;2023-05-02T04:29:49;7.60;99.90
52203;DHT22;38173;52.850;6.970;2023-05-02T04:32:15;7.50;99.90
52203;DHT22;38173;52.850;6.970;2023-05-02T04:34:41;7.50;99.90
52203;DHT22;38173;52.850;6.970;2023-05-02T04:37:07;7.50;99.90
52203;DHT22;38173;52.850;6.970;2023-05-02T04:39:33;7.40;99.90
52203;DHT22;38173;52.850;6.970;2023-05-02T04:41:58;7.40;99.90
52203;DHT22;38173;52.850;6.970;2023-05-02T04:44:24;7.40;99.90
52203;DHT22;38173;52.850;6.970;2023-05-02T04:46:49;7.30;99.90
52203;DHT22;38173;52.850;6.970;2023-05-02T04:49:15;7.30;99.90
52203;DHT22;38173;52.850;6.970;2023-05-02T04:51:41;7.40;99.90
52203;DHT22;38173;52.850;6.970;2023-05-02T04:54:08;7.30;99.90
52203;DHT22;38173;52.850;6.970;2023-05-02T04:56:33;7.30;99.90
52203;DHT22;38173;52.850;6.970;2023-05-02T04:58:59;7.30;99.90
52203;DHT22;38173;52.850;6.970;2023-05-02T05:01:25;7.40;99.90
52203;DHT22;38173;52.850;6.970;2023-05-02T05:03:53;7.30;99.90
52203;DHT22;38173;52.850;6.970;2023-05-02T05:06:19;7.40;99.90
52203;DHT22;38173;52.850;6.970;2023-05-02T05:08:45;7.40;99.90
52203;DHT22;38173;52.850;6.970;2023-05-02T05:11:14;7.40;99.90
52203;DHT22;38173;52.850;6.970;2023-05-02T05:13:43;7.40;99.90
52203;DHT22;38173;52.850;6.970;2023-05-02T05:16:08;7.40;99.90
52203;DHT22;38173;52.850;6.970;2023-05-02T05:18:34;7.40;99.90
52203;DHT22;38173;52.850;6.970;2023-05-02T05:21:05;7.50;99.90
52203;DHT22;38173;52.850;6.970;2023-05-02T05:23:30;7.50;99.90
52203;DHT22;38173;52.850;6.970;2023-05-02T05:25:56;7.50;99.90
52203;DHT22;38173;52.850;6.970;2023-05-02T05:28:25;7.50;99.90
52203;DHT22;38173;52.850;6.970;2023-05-02T05:30:54;7.50;99.90
52203;DHT22;38173;52.850;6.970;2023-05-02T05:33:19;7.60;99.90
52203;DHT22;38173;52.850;6.970;2023-05-02T05:35:47;7.50;99.90
52203;DHT22;38173;52.850;6.970;2023-05-02T05:38:13;7.60;99.90
52203;DHT22;38173;52.850;6.970;2023-05-02T05:40:39;7.60;99.90
52203;DHT22;38173;52.850;6.970;2023-05-02T05:43:05;7.60;99.90
52203;DHT22;38173;52.850;6.970;2023-05-02T05:45:31;7.60;99.90
52203;DHT22;38173;52.850;6.970;2023-05-02T05:47:56;7.60;99.90
52203;DHT22;38173;52.850;6.970;2023-05-02T05:50:23;7.70;99.90
52203;DHT22;38173;52.850;6.970;2023-05-02T05:52:49;7.70;99.90
52203;DHT22;38173;52.850;6.970;2023-05-02T05:55:15;7.70;99.90
52203;DHT22;38173;52.850;6.970;2023-05-02T05:57:41;7.70;99.90
52203;DHT22;38173;52.850;6.970;2023-05-02T06:00:07;7.70;99.90
52203;DHT22;38173;52.850;6.970;2023-05-02T06:02:33;7.80;99.90
52203;DHT22;38173;52.850;6.970;2023-05-02T06:04:59;7.80;99.90
52203;DHT22;38173;52.850;6.970;2023-05-02T06:07:25;7.80;99.90
52203;DHT22;38173;52.850;6.970;2023-05-02T06:09:50;7.80;99.90
52203;DHT22;38173;52.850;6.970;2023-05-02T06:12:16;7.80;99.90
52203;DHT22;38173;52.850;6.970;2023-05-02T06:14:43;7.70;99.90
52203;DHT22;38173;52.850;6.970;2023-05-02T06:17:08;7.80;99.90
52203;DHT22;38173;52.850;6.970;2023-05-02T06:19:34;7.80;99.90
52203;DHT22;38173;52.850;6.970;2023-05-02T06:22:00;7.90;99.90
52203;DHT22;38173;52.850;6.970;2023-05-02T06:24:26;8.00;99.90
52203;DHT22;38173;52.850;6.970;2023-05-02T06:26:54;8.00;99.90
52203;DHT22;38173;52.850;6.970;2023-05-02T06:29:23;8.10;99.90
52203;DHT22;38173;52.850;6.970;2023-05-02T06:31:48;8.10;99.90
52203;DHT22;38173;52.850;6.970;2023-05-02T06:34:15;8.10;99.90
52203;DHT22;38173;52.850;6.970;2023-05-02T06:36:41;8.20;99.90
52203;DHT22;38173;52.850;6.970;2023-05-02T06:39:06;8.20;99.90
52203;DHT22;38173;52.850;6.970;2023-05-02T06:41:32;8.10;99.90
52203;DHT22;38173;52.850;6.970;2023-05-02T06:43:58;8.20;99.90
52203;DHT22;38173;52.850;6.970;2023-05-02T06:46:27;8.20;99.90
52203;DHT22;38173;52.850;6.970;2023-05-02T06:48:52;8.10;99.90
52203;DHT22;38173;52.850;6.970;2023-05-02T06:51:22;8.10;99.90
52203;DHT22;38173;52.850;6.970;2023-05-02T06:53:47;8.10;99.90
52203;DHT22;38173;52.850;6.970;2023-05-02T06:56:13;8.10;99.90
52203;DHT22;38173;52.850;6.970;2023-05-02T06:58:39;8.10;99.90
52203;DHT22;38173;52.850;6.970;2023-05-02T07:01:04;8.20;99.90
52203;DHT22;38173;52.850;6.970;2023-05-02T07:03:30;8.20;99.90
52203;DHT22;38173;52.850;6.970;2023-05-02T07:05:56;8.20;99.90
52203;DHT22;38173;52.850;6.970;2023-05-02T07:08:22;8.20;99.90
52203;DHT22;38173;52.850;6.970;2023-05-02T07:10:51;8.30;99.90
52203;DHT22;38173;52.850;6.970;2023-05-02T07:13:17;8.50;99.90
52203;DHT22;38173;52.850;6.970;2023-05-02T07:15:43;8.60;99.90
52203;DHT22;38173;52.850;6.970;2023-05-02T07:18:08;8.70;99.90
52203;DHT22;38173;52.850;6.970;2023-05-02T07:20:34;8.90;99.90
52203;DHT22;38173;52.850;6.970;2023-05-02T07:23:00;9.00;99.90
52203;DHT22;38173;52.850;6.970;2023-05-02T07:25:25;9.10;99.90
52203;DHT22;38173;52.850;6.970;2023-05-02T07:27:51;9.20;99.90
52203;DHT22;38173;52.850;6.970;2023-05-02T07:30:17;9.20;99.90
52203;DHT22;38173;52.850;6.970;2023-05-02T07:32:43;9.30;99.90
52203;DHT22;38173;52.850;6.970;2023-05-02T07:35:09;9.20;99.90
52203;DHT22;38173;52.850;6.970;2023-05-02T07:37:34;9.20;99.90
52203;DHT22;38173;52.850;6.970;2023-05-02T07:40:01;9.20;99.90
52203;DHT22;38173;52.850;6.970;2023-05-02T07:42:30;9.30;99.90
52203;DHT22;38173;52.850;6.970;2023-05-02T07:44:56;9.40;99.90
52203;DHT22;38173;52.850;6.970;2023-05-02T07:47:22;9.50;99.90
52203;DHT22;38173;52.850;6.970;2023-05-02T07:49:52;9.50;99.90
52203;DHT22;38173;52.850;6.970;2023-05-02T07:52:18;9.60;99.90
52203;DHT22;38173;52.850;6.970;2023-05-02T07:54:44;9.60;99.50
52203;DHT22;38173;52.850;6.970;2023-05-02T07:57:11;9.60;97.30
52203;DHT22;38173;52.850;6.970;2023-05-02T07:59:37;9.70;99.80
52203;DHT22;38173;52.850;6.970;2023-05-02T08:02:03;9.80;99.40
52203;DHT22;38173;52.850;6.970;2023-05-02T08:04:29;9.80;99.90
52203;DHT22;38173;52.850;6.970;2023-05-02T08:06:55;9.90;98.70
52203;DHT22;38173;52.850;6.970;2023-05-02T08:09:24;10.00;98.40
52203;DHT22;38173;52.850;6.970;2023-05-02T08:11:50;10.10;99.20
52203;DHT22;38173;52.850;6.970;2023-05-02T08:14:15;10.10;99.90
52203;DHT22;38173;52.850;6.970;2023-05-02T08:16:41;10.20;98.40
52203;DHT22;38173;52.850;6.970;2023-05-02T08:19:07;10.30;97.00
52203;DHT22;38173;52.850;6.970;2023-05-02T08:21:33;10.40;98.30
52203;DHT22;38173;52.850;6.970;2023-05-02T08:23:59;10.50;96.40
52203;DHT22;38173;52.850;6.970;2023-05-02T08:26:24;10.60;96.70
52203;DHT22;38173;52.850;6.970;2023-05-02T08:28:50;10.70;97.00
52203;DHT22;38173;52.850;6.970;2023-05-02T08:31:16;10.80;98.20
52203;DHT22;38173;52.850;6.970;2023-05-02T08:33:42;10.70;96.60
52203;DHT22;38173;52.850;6.970;2023-05-02T08:36:12;10.70;99.90
52203;DHT22;38173;52.850;6.970;2023-05-02T08:38:39;10.70;95.10
52203;DHT22;38173;52.850;6.970;2023-05-02T08:43:40;10.70;94.90
52203;DHT22;38173;52.850;6.970;2023-05-02T08:46:06;10.90;94.30
52203;DHT22;38173;52.850;6.970;2023-05-02T08:48:42;11.00;95.60
52203;DHT22;38173;52.850;6.970;2023-05-02T08:51:09;11.00;93.50
52203;DHT22;38173;52.850;6.970;2023-05-02T08:53:35;11.00;93.70
52203;DHT22;38173;52.850;6.970;2023-05-02T08:56:01;10.90;95.10
52203;DHT22;38173;52.850;6.970;2023-05-02T08:58:27;10.80;94.30
52203;DHT22;38173;52.850;6.970;2023-05-02T09:00:55;10.80;93.60
52203;DHT22;38173;52.850;6.970;2023-05-02T09:03:31;10.90;93.50
52203;DHT22;38173;52.850;6.970;2023-05-02T09:06:09;10.90;95.50
52203;DHT22;38173;52.850;6.970;2023-05-02T09:08:37;10.80;93.00
52203;DHT22;38173;52.850;6.970;2023-05-02T09:11:03;10.80;92.20
52203;DHT22;38173;52.850;6.970;2023-05-02T09:16:00;10.70;93.80
52203;DHT22;38173;52.850;6.970;2023-05-02T09:18:27;10.80;98.80
52203;DHT22;38173;52.850;6.970;2023-05-02T09:20:53;10.80;94.50
52203;DHT22;38173;52.850;6.970;2023-05-02T09:23:18;10.80;94.30
52203;DHT22;38173;52.850;6.970;2023-05-02T09:25:44;10.80;93.80
52203;DHT22;38173;52.850;6.970;2023-05-02T09:28:10;10.80;94.00
52203;DHT22;38173;52.850;6.970;2023-05-02T09:30:36;10.90;94.90
52203;DHT22;38173;52.850;6.970;2023-05-02T09:33:02;11.00;96.00
52203;DHT22;38173;52.850;6.970;2023-05-02T09:35:27;11.10;94.90
52203;DHT22;38173;52.850;6.970;2023-05-02T09:37:54;11.30;94.50
52203;DHT22;38173;52.850;6.970;2023-05-02T09:40:20;11.40;93.60
52203;DHT22;38173;52.850;6.970;2023-05-02T09:42:46;11.40;91.20
52203;DHT22;38173;52.850;6.970;2023-05-02T09:45:45;11.30;92.10
52203;DHT22;38173;52.850;6.970;2023-05-02T09:48:03;11.30;94.00
52203;DHT22;38173;52.850;6.970;2023-05-02T09:50:36;11.10;93.80
52203;DHT22;38173;52.850;6.970;2023-05-02T09:53:02;11.00;94.40
52203;DHT22;38173;52.850;6.970;2023-05-02T09:55:28;10.90;93.90
52203;DHT22;38173;52.850;6.970;2023-05-02T09:57:54;10.90;93.60
52203;DHT22;38173;52.850;6.970;2023-05-02T10:00:21;10.90;93.20
52203;DHT22;38173;52.850;6.970;2023-05-02T10:02:48;10.90;93.90
52203;DHT22;38173;52.850;6.970;2023-05-02T10:05:18;10.90;92.20
52203;DHT22;38173;52.850;6.970;2023-05-02T10:07:44;11.00;92.00
52203;DHT22;38173;52.850;6.970;2023-05-02T10:10:11;11.00;92.50
52203;DHT22;38173;52.850;6.970;2023-05-02T10:12:39;11.10;92.00
52203;DHT22;38173;52.850;6.970;2023-05-02T10:15:05;11.10;92.40
52203;DHT22;38173;52.850;6.970;2023-05-02T10:17:34;11.20;93.10
52203;DHT22;38173;52.850;6.970;2023-05-02T10:20:03;11.40;90.30
52203;DHT22;38173;52.850;6.970;2023-05-02T10:22:30;11.60;89.70
52203;DHT22;38173;52.850;6.970;2023-05-02T10:24:57;11.80;87.80
52203;DHT22;38173;52.850;6.970;2023-05-02T10:27:24;11.80;89.10
52203;DHT22;38173;52.850;6.970;2023-05-02T10:29:50;11.80;88.00
52203;DHT22;38173;52.850;6.970;2023-05-02T10:32:16;11.80;85.00
52203;DHT22;38173;52.850;6.970;2023-05-02T10:34:42;11.90;84.30
52203;DHT22;38173;52.850;6.970;2023-05-02T10:37:08;12.00;85.30
52203;DHT22;38173;52.850;6.970;2023-05-02T10:39:33;12.20;83.30
52203;DHT22;38173;52.850;6.970;2023-05-02T10:42:02;12.40;83.80
52203;DHT22;38173;52.850;6.970;2023-05-02T10:44:35;12.60;81.00
52203;DHT22;38173;52.850;6.970;2023-05-02T10:47:35;12.70;80.40
52203;DHT22;38173;52.850;6.970;2023-05-02T10:49:58;12.90;80.90
52203;DHT22;38173;52.850;6.970;2023-05-02T10:52:37;13.00;81.30
52203;DHT22;38173;52.850;6.970;2023-05-02T10:55:13;13.00;80.30
52203;DHT22;38173;52.850;6.970;2023-05-02T11:00:25;12.70;81.80
52203;DHT22;38173;52.850;6.970;2023-05-02T11:02:51;12.60;81.70
52203;DHT22;38173;52.850;6.970;2023-05-02T11:05:17;12.70;82.80
52203;DHT22;38173;52.850;6.970;2023-05-02T11:07:43;12.80;83.50
52203;DHT22;38173;52.850;6.970;2023-05-02T11:12:47;12.90;81.40
52203;DHT22;38173;52.850;6.970;2023-05-02T11:18:04;12.90;80.90
52203;DHT22;38173;52.850;6.970;2023-05-02T11:20:33;12.90;83.90
52203;DHT22;38173;52.850;6.970;2023-05-02T11:25:42;12.80;82.40
52203;DHT22;38173;52.850;6.970;2023-05-02T11:28:53;12.80;81.70
52203;DHT22;38173;52.850;6.970;2023-05-02T11:30:54;12.90;79.60
52203;DHT22;38173;52.850;6.970;2023-05-02T11:33:22;12.90;83.30
52203;DHT22;38173;52.850;6.970;2023-05-02T11:35:48;13.00;82.90
52203;DHT22;38173;52.850;6.970;2023-05-02T11:38:14;13.20;83.00
52203;DHT22;38173;52.850;6.970;2023-05-02T11:40:40;13.30;81.50
52203;DHT22;38173;52.850;6.970;2023-05-02T11:43:14;13.40;80.40
52203;DHT22;38173;52.850;6.970;2023-05-02T11:45:40;13.30;83.00
52203;DHT22;38173;52.850;6.970;2023-05-02T11:48:12;13.10;82.90
52203;DHT22;38173;52.850;6.970;2023-05-02T11:53:11;12.70;84.50
52203;DHT22;38173;52.850;6.970;2023-05-02T11:55:42;12.50;85.70
52203;DHT22;38173;52.850;6.970;2023-05-02T11:58:12;12.40;86.80
52203;DHT22;38173;52.850;6.970;2023-05-02T12:00:39;12.30;86.50
52203;DHT22;38173;52.850;6.970;2023-05-02T12:03:05;12.20;83.50
52203;DHT22;38173;52.850;6.970;2023-05-02T12:05:31;12.30;83.00
52203;DHT22;38173;52.850;6.970;2023-05-02T12:07:57;12.40;83.70
52203;DHT22;38173;52.850;6.970;2023-05-02T12:10:24;12.50;82.20
52203;DHT22;38173;52.850;6.970;2023-05-02T12:13:03;12.70;80.10
52203;DHT22;38173;52.850;6.970;2023-05-02T12:15:28;12.80;81.10
52203;DHT22;38173;52.850;6.970;2023-05-02T12:17:54;13.00;82.20
52203;DHT22;38173;52.850;6.970;2023-05-02T12:20:21;13.20;80.30
52203;DHT22;38173;52.850;6.970;2023-05-02T12:22:47;13.40;80.60
52203;DHT22;38173;52.850;6.970;2023-05-02T12:25:13;13.60;80.20
52203;DHT22;38173;52.850;6.970;2023-05-02T12:27:39;13.60;75.30
52203;DHT22;38173;52.850;6.970;2023-05-02T12:30:05;13.60;77.50
52203;DHT22;38173;52.850;6.970;2023-05-02T12:32:31;13.40;79.20
52203;DHT22;38173;52.850;6.970;2023-05-02T12:34:58;13.30;77.50
52203;DHT22;38173;52.850;6.970;2023-05-02T12:37:24;13.20;78.10
52203;DHT22;38173;52.850;6.970;2023-05-02T12:39:50;13.00;80.90
52203;DHT22;38173;52.850;6.970;2023-05-02T12:42:16;12.80;83.60
52203;DHT22;38173;52.850;6.970;2023-05-02T12:44:44;12.60;84.50
52203;DHT22;38173;52.850;6.970;2023-05-02T12:47:11;12.40;85.20
52203;DHT22;38173;52.850;6.970;2023-05-02T12:49:50;12.30;84.20
52203;DHT22;38173;52.850;6.970;2023-05-02T12:52:18;12.20;87.90
52203;DHT22;38173;52.850;6.970;2023-05-02T12:54:44;12.20;87.20
52203;DHT22;38173;52.850;6.970;2023-05-02T12:57:20;12.20;87.80
52203;DHT22;38173;52.850;6.970;2023-05-02T12:59:46;12.30;85.60
52203;DHT22;38173;52.850;6.970;2023-05-02T13:02:12;12.40;85.80
52203;DHT22;38173;52.850;6.970;2023-05-02T13:04:38;12.50;87.40
52203;DHT22;38173;52.850;6.970;2023-05-02T13:07:05;12.60;84.90
52203;DHT22;38173;52.850;6.970;2023-05-02T13:09:31;12.80;84.40
52203;DHT22;38173;52.850;6.970;2023-05-02T13:11:57;12.90;84.20
52203;DHT22;38173;52.850;6.970;2023-05-02T13:14:28;13.00;83.20
52203;DHT22;38173;52.850;6.970;2023-05-02T13:16:53;13.10;82.10
52203;DHT22;38173;52.850;6.970;2023-05-02T13:19:20;12.90;79.10
52203;DHT22;38173;52.850;6.970;2023-05-02T13:21:45;12.80;82.70
52203;DHT22;38173;52.850;6.970;2023-05-02T13:24:11;12.70;83.90
52203;DHT22;38173;52.850;6.970;2023-05-02T13:26:37;12.60;84.10
52203;DHT22;38173;52.850;6.970;2023-05-02T13:29:03;12.50;84.90
52203;DHT22;38173;52.850;6.970;2023-05-02T13:31:29;12.40;84.80
52203;DHT22;38173;52.850;6.970;2023-05-02T13:33:54;12.30;84.60
52203;DHT22;38173;52.850;6.970;2023-05-02T13:36:23;12.30;83.90
52203;DHT22;38173;52.850;6.970;2023-05-02T13:38:49;12.20;84.80
52203;DHT22;38173;52.850;6.970;2023-05-02T13:41:14;12.30;84.20
52203;DHT22;38173;52.850;6.970;2023-05-02T13:43:40;12.50;82.90
52203;DHT22;38173;52.850;6.970;2023-05-02T13:46:06;12.60;84.80
52203;DHT22;38173;52.850;6.970;2023-05-02T13:48:32;12.90;82.40
52203;DHT22;38173;52.850;6.970;2023-05-02T13:50:57;13.00;83.50
52203;DHT22;38173;52.850;6.970;2023-05-02T13:53:23;13.00;84.40
52203;DHT22;38173;52.850;6.970;2023-05-02T13:55:49;13.00;83.20
52203;DHT22;38173;52.850;6.970;2023-05-02T13:58:14;13.10;81.50
52203;DHT22;38173;52.850;6.970;2023-05-02T14:00:40;13.20;81.90
52203;DHT22;38173;52.850;6.970;2023-05-02T14:03:06;13.30;79.60
52203;DHT22;38173;52.850;6.970;2023-05-02T14:05:32;13.40;78.00
52203;DHT22;38173;52.850;6.970;2023-05-02T14:07:57;13.60;80.10
52203;DHT22;38173;52.850;6.970;2023-05-02T14:10:23;14.10;79.10
52203;DHT22;38173;52.850;6.970;2023-05-02T14:12:49;15.30;83.70
52203;DHT22;38173;52.850;6.970;2023-05-02T14:15:14;16.60;77.20
52203;DHT22;38173;52.850;6.970;2023-05-02T14:17:40;17.80;70.20
52203;DHT22;38173;52.850;6.970;2023-05-02T14:20:06;18.70;62.80
52203;DHT22;38173;52.850;6.970;2023-05-02T14:22:32;18.50;66.30
52203;DHT22;38173;52.850;6.970;2023-05-02T14:24:57;17.60;66.20
52203;DHT22;38173;52.850;6.970;2023-05-02T14:27:23;16.70;61.20
52203;DHT22;38173;52.850;6.970;2023-05-02T14:29:50;16.10;63.60
52203;DHT22;38173;52.850;6.970;2023-05-02T14:32:15;15.60;65.20
52203;DHT22;38173;52.850;6.970;2023-05-02T14:34:41;15.20;66.50
52203;DHT22;38173;52.850;6.970;2023-05-02T14:37:07;15.00;67.70
52203;DHT22;38173;52.850;6.970;2023-05-02T14:39:35;14.80;67.10
52203;DHT22;38173;52.850;6.970;2023-05-02T14:42:01;14.60;69.30
52203;DHT22;38173;52.850;6.970;2023-05-02T14:44:29;14.50;68.00
52203;DHT22;38173;52.850;6.970;2023-05-02T14:47:03;14.30;69.90
52203;DHT22;38173;52.850;6.970;2023-05-02T14:49:29;14.20;67.70
52203;DHT22;38173;52.850;6.970;2023-05-02T14:51:55;14.10;73.40
52203;DHT22;38173;52.850;6.970;2023-05-02T14:54:24;14.00;74.30
52203;DHT22;38173;52.850;6.970;2023-05-02T14:56:53;14.20;74.30
52203;DHT22;38173;52.850;6.970;2023-05-02T14:59:19;15.00;74.80
52203;DHT22;38173;52.850;6.970;2023-05-02T15:01:45;16.30;71.50
52203;DHT22;38173;52.850;6.970;2023-05-02T15:04:11;17.20;67.20
52203;DHT22;38173;52.850;6.970;2023-05-02T15:06:37;16.80;65.40
52203;DHT22;38173;52.850;6.970;2023-05-02T15:09:03;16.20;64.90
52203;DHT22;38173;52.850;6.970;2023-05-02T15:11:29;15.90;70.30
52203;DHT22;38173;52.850;6.970;2023-05-02T15:13:56;15.90;69.90
52203;DHT22;38173;52.850;6.970;2023-05-02T15:16:22;15.60;68.80
52203;DHT22;38173;52.850;6.970;2023-05-02T15:18:48;15.40;66.80
52203;DHT22;38173;52.850;6.970;2023-05-02T15:21:13;15.20;68.90
52203;DHT22;38173;52.850;6.970;2023-05-02T15:23:39;15.00;67.30
52203;DHT22;38173;52.850;6.970;2023-05-02T15:26:05;14.80;67.00
52203;DHT22;38173;52.850;6.970;2023-05-02T15:28:31;14.60;66.50
52203;DHT22;38173;52.850;6.970;2023-05-02T15:30:56;14.40;65.80
52203;DHT22;38173;52.850;6.970;2023-05-02T15:33:22;14.10;68.10
52203;DHT22;38173;52.850;6.970;2023-05-02T15:35:56;13.80;69.20
52203;DHT22;38173;52.850;6.970;2023-05-02T15:38:22;13.60;70.20
52203;DHT22;38173;52.850;6.970;2023-05-02T15:40:56;13.60;69.60
52203;DHT22;38173;52.850;6.970;2023-05-02T15:43:22;13.60;69.40
52203;DHT22;38173;52.850;6.970;2023-05-02T15:45:52;13.50;69.60
52203;DHT22;38173;52.850;6.970;2023-05-02T15:48:19;13.50;69.90
52203;DHT22;38173;52.850;6.970;2023-05-02T15:50:45;13.70;69.80
52203;DHT22;38173;52.850;6.970;2023-05-02T15:53:14;13.60;68.60
52203;DHT22;38173;52.850;6.970;2023-05-02T15:55:42;13.40;68.60
52203;DHT22;38173;52.850;6.970;2023-05-02T15:58:11;13.20;67.30
52203;DHT22;38173;52.850;6.970;2023-05-02T16:00:37;13.30;68.60
52203;DHT22;38173;52.850;6.970;2023-05-02T16:03:03;13.10;71.50
52203;DHT22;38173;52.850;6.970;2023-05-02T16:05:29;13.00;68.90
52203;DHT22;38173;52.850;6.970;2023-05-02T16:07:55;13.20;71.10
52203;DHT22;38173;52.850;6.970;2023-05-02T16:10:21;14.00;72.30
52203;DHT22;38173;52.850;6.970;2023-05-02T16:12:46;14.30;70.50
52203;DHT22;38173;52.850;6.970;2023-05-02T16:15:12;14.00;70.90